Time;durP1;ratioP1;P1;durP2;ratioP2;P2;SDS_P1;SDS_P2;PMS_P1;PMS_P2;Temp;Humidity;BMP_temperature;BMP_pressure;BME280_temperature;BME280_humidity;BME280_pressure;Samples;Min_cycle;Max_cycle;Signal;HPM_P1;HPM_P2
2021/07/10 00:00:29;;;;;;;4.60;2.42;;;16.10;90.30;;;;;;5034686;28;20029;-77
2021/07/10 00:02:55;;;;;;;4.93;2.50;;;16.00;90.50;;;;;;5034116;28;20033;-77
2021/07/10 00:05:21;;;;;;;4.88;2.10;;;15.90;90.70;;;;;;5034110;28;20021;-77
2021/07/10 00:07:48;;;;;;;2.33;1.92;;;16.00;90.70;;;;;;5038760;28;20029;-79
2021/07/10 00:10:16;;;;;;;3.92;2.40;;;16.00;90.60;;;;;;5051129;28;20047;-75
2021/07/10 00:12:42;;;;;;;4.10;2.60;;;16.00;90.40;;;;;;5050747;28;20022;-78
2021/07/10 00:15:11;;;;;;;3.00;2.30;;;16.00;90.50;;;;;;5034160;28;20033;-77
2021/07/10 00:17:37;;;;;;;5.55;2.42;;;16.00;90.60;;;;;;5016731;28;20025;-77
2021/07/10 00:20:05;;;;;;;3.25;2.33;;;15.90;90.80;;;;;;5040783;28;20484;-79
2021/07/10 00:22:31;;;;;;;3.17;2.10;;;16.00;90.70;;;;;;5035048;28;20397;-76
2021/07/10 00:24:56;;;;;;;3.80;2.10;;;16.00;90.70;;;;;;5053533;28;20045;-77
2021/07/10 00:27:22;;;;;;;3.05;2.20;;;16.00;90.70;;;;;;5053601;28;20029;-77
2021/07/10 00:29:48;;;;;;;3.35;2.15;;;15.90;90.70;;;;;;5053906;28;20021;-76
2021/07/10 00:32:14;;;;;;;2.60;1.80;;;16.00;90.70;;;;;;5053789;28;20029;-78
2021/07/10 00:34:40;;;;;;;3.80;1.90;;;16.00;90.70;;;;;;5053418;28;20040;-78
2021/07/10 00:37:06;;;;;;;4.40;1.92;;;16.00;90.60;;;;;;5053432;28;20473;-77
2021/07/10 00:39:32;;;;;;;4.28;2.72;;;16.10;90.50;;;;;;5036141;28;20025;-76
2021/07/10 00:41:57;;;;;;;2.78;2.13;;;16.10;90.20;;;;;;5053632;28;20090;-77
2021/07/10 00:44:23;;;;;;;3.40;2.47;;;16.20;90.30;;;;;;5053176;28;20397;-75
2021/07/10 00:46:48;;;;;;;3.95;2.22;;;16.10;90.40;;;;;;5053598;28;20491;-76
2021/07/10 00:49:14;;;;;;;4.50;2.30;;;16.10;90.30;;;;;;5053410;28;20017;-78
2021/07/10 00:51:40;;;;;;;3.30;2.17;;;16.10;90.40;;;;;;5053446;28;20021;-77
2021/07/10 00:54:05;;;;;;;3.72;2.17;;;16.10;90.40;;;;;;5052922;28;20431;-77
2021/07/10 00:56:31;;;;;;;2.38;2.08;;;16.10;90.50;;;;;;5035346;28;20370;-77
2021/07/10 00:58:58;;;;;;;4.40;2.08;;;16.20;90.40;;;;;;5053573;28;20473;-77
2021/07/10 01:01:25;;;;;;;2.25;1.80;;;16.20;90.20;;;;;;5053432;28;20029;-77
2021/07/10 01:03:51;;;;;;;3.15;2.17;;;16.20;90.50;;;;;;5052687;28;20442;-78
2021/07/10 01:06:17;;;;;;;3.60;2.40;;;16.20;90.50;;;;;;5052940;28;20028;-76
2021/07/10 01:08:45;;;;;;;4.88;2.35;;;16.20;90.40;;;;;;5035185;28;20036;-76
2021/07/10 01:11:12;;;;;;;2.55;2.25;;;16.10;90.50;;;;;;5053243;28;20060;-78
2021/07/10 01:13:38;;;;;;;6.53;2.30;;;16.10;90.60;;;;;;5052761;28;20009;-77
2021/07/10 01:16:04;;;;;;;3.63;2.30;;;16.00;90.60;;;;;;5052467;28;20071;-76
2021/07/10 01:18:31;;;;;;;4.47;2.70;;;16.10;90.70;;;;;;5052906;28;20526;-78
2021/07/10 01:20:57;;;;;;;4.38;2.63;;;16.20;90.60;;;;;;5038793;28;20104;-77
2021/07/10 01:23:24;;;;;;;3.45;2.53;;;16.20;90.60;;;;;;5032681;28;20089;-77
2021/07/10 01:25:51;;;;;;;5.40;2.50;;;16.20;90.60;;;;;;5032428;28;20104;-78
2021/07/10 01:28:18;;;;;;;3.00;2.30;;;16.20;90.60;;;;;;5032529;28;20013;-78
2021/07/10 01:30:45;;;;;;;3.17;2.38;;;16.20;90.70;;;;;;5033017;28;20024;-77
2021/07/10 01:33:12;;;;;;;4.25;2.20;;;16.10;90.60;;;;;;5032296;28;20071;-77
2021/07/10 01:35:38;;;;;;;6.03;2.78;;;16.20;90.60;;;;;;5014677;28;20026;-78
2021/07/10 01:38:07;;;;;;;3.78;2.30;;;16.20;90.70;;;;;;5032673;28;20030;-77
2021/07/10 01:40:33;;;;;;;5.97;2.42;;;16.10;90.70;;;;;;5032575;28;20106;-76
2021/07/10 01:43:03;;;;;;;4.90;2.78;;;16.20;90.60;;;;;;5032428;28;20022;-79
2021/07/10 01:45:33;;;;;;;4.88;2.40;;;16.20;90.70;;;;;;5032321;28;20065;-77
2021/07/10 01:47:59;;;;;;;4.35;2.15;;;16.20;90.70;;;;;;5032443;28;20021;-77
2021/07/10 01:50:26;;;;;;;4.13;2.50;;;16.20;90.70;;;;;;5032626;28;20109;-75
2021/07/10 01:52:52;;;;;;;5.38;2.60;;;16.00;90.90;;;;;;5031989;28;20023;-78
2021/07/10 01:55:18;;;;;;;3.92;2.17;;;16.10;90.90;;;;;;5032059;28;20076;-78
2021/07/10 01:57:47;;;;;;;4.55;2.30;;;16.20;91.20;;;;;;5032332;28;20500;-77
2021/07/10 02:00:35;;;;;;;3.25;2.25;;;16.20;91.20;;;;;;5032510;28;20029;-76
2021/07/10 02:03:01;;;;;;;3.90;2.30;;;16.20;91.20;;;;;;5013803;28;20567;-75
2021/07/10 02:05:29;;;;;;;4.63;1.90;;;16.20;91.70;;;;;;5031975;28;20512;-76
2021/07/10 02:07:58;;;;;;;5.10;2.45;;;16.10;91.80;;;;;;5032192;28;20076;-78
2021/07/10 02:10:25;;;;;;;2.78;2.25;;;16.10;91.90;;;;;;5032349;28;20033;-78
2021/07/10 02:12:53;;;;;;;5.25;2.95;;;16.10;92.00;;;;;;5032153;28;20075;-77
2021/07/10 02:15:19;;;;;;;4.18;2.33;;;16.00;91.90;;;;;;5031774;28;20029;-76
2021/07/10 02:17:45;;;;;;;4.53;2.42;;;16.00;91.90;;;;;;5032141;28;20071;-76
2021/07/10 02:20:18;;;;;;;4.38;1.85;;;16.10;92.00;;;;;;5039681;28;20081;-78
2021/07/10 02:22:44;;;;;;;3.85;2.40;;;16.10;92.10;;;;;;5052044;28;20020;-77
2021/07/10 02:25:12;;;;;;;4.80;2.28;;;16.00;92.20;;;;;;5051517;28;20056;-76
2021/07/10 02:27:38;;;;;;;4.10;2.70;;;16.00;92.30;;;;;;5051800;28;20027;-78
2021/07/10 02:30:12;;;;;;;5.50;2.83;;;16.00;92.00;;;;;;5061126;28;20029;-75
2021/07/10 02:32:39;;;;;;;7.47;3.28;;;15.90;91.90;;;;;;5061559;28;20502;-76
2021/07/10 02:35:10;;;;;;;9.70;2.67;;;15.70;92.20;;;;;;5051548;28;20025;-78
2021/07/10 02:37:36;;;;;;;4.88;2.90;;;15.60;92.60;;;;;;5051865;28;20021;-76
2021/07/10 02:40:06;;;;;;;4.70;3.03;;;15.60;92.60;;;;;;5051748;28;20021;-77
2021/07/10 02:42:31;;;;;;;4.35;3.03;;;15.50;92.80;;;;;;5051596;28;20089;-77
2021/07/10 02:44:58;;;;;;;5.45;3.13;;;15.50;93.20;;;;;;5051532;28;20373;-76
2021/07/10 02:47:24;;;;;;;5.45;3.15;;;15.60;93.10;;;;;;5055576;28;20070;-75
2021/07/10 02:49:50;;;;;;;8.35;3.38;;;15.50;93.00;;;;;;5055769;28;20064;-78
2021/07/10 02:52:16;;;;;;;3.75;2.53;;;15.40;93.30;;;;;;5055239;28;20055;-75
2021/07/10 02:54:42;;;;;;;3.63;2.40;;;15.50;93.20;;;;;;5055200;28;20029;-76
2021/07/10 02:57:07;;;;;;;5.50;3.33;;;15.50;93.30;;;;;;5055344;28;20025;-78
2021/07/10 02:59:33;;;;;;;3.65;2.42;;;15.70;93.40;;;;;;5055835;28;20105;-78
2021/07/10 03:01:59;;;;;;;3.92;2.58;;;15.70;93.20;;;;;;5055425;28;20025;-77
2021/07/10 03:04:25;;;;;;;4.63;2.80;;;15.80;93.30;;;;;;5054971;28;20491;-78
2021/07/10 03:06:50;;;;;;;3.90;2.42;;;15.80;93.20;;;;;;5055275;28;20021;-78
2021/07/10 03:09:16;;;;;;;3.38;2.50;;;15.80;93.40;;;;;;5055537;28;20040;-77
2021/07/10 03:11:42;;;;;;;5.40;2.90;;;15.80;93.30;;;;;;5055376;28;20029;-74
2021/07/10 03:14:07;;;;;;;6.18;2.65;;;15.80;93.40;;;;;;5055157;28;20416;-76
2021/07/10 03:16:33;;;;;;;5.82;2.83;;;15.80;93.20;;;;;;5054672;28;20498;-76
2021/07/10 03:18:59;;;;;;;3.78;2.40;;;15.90;93.10;;;;;;5055434;28;20048;-77
2021/07/10 03:21:24;;;;;;;3.83;2.50;;;15.80;93.30;;;;;;5037196;28;20104;-77
2021/07/10 03:23:50;;;;;;;4.78;2.78;;;15.80;93.30;;;;;;5017280;28;20030;-77
2021/07/10 03:26:16;;;;;;;5.30;3.35;;;15.80;93.10;;;;;;5034308;28;20061;-78
2021/07/10 03:28:41;;;;;;;4.47;2.53;;;15.80;93.10;;;;;;5034580;28;20509;-77
2021/07/10 03:31:07;;;;;;;7.75;3.22;;;15.80;93.20;;;;;;5035125;28;20021;-78
2021/07/10 03:33:38;;;;;;;4.13;2.80;;;15.80;93.30;;;;;;5016965;28;20425;-76
2021/07/10 03:36:05;;;;;;;7.22;3.35;;;15.80;93.20;;;;;;5034519;28;20386;-78
2021/07/10 03:38:32;;;;;;;5.30;3.35;;;15.90;93.30;;;;;;5034995;28;20047;-78
2021/07/10 03:40:58;;;;;;;4.65;3.13;;;15.90;93.50;;;;;;5034957;28;20037;-77
2021/07/10 03:43:24;;;;;;;4.85;3.35;;;15.80;93.60;;;;;;5034682;28;20030;-77
2021/07/10 03:45:52;;;;;;;5.88;2.90;;;15.80;93.60;;;;;;5034558;28;20075;-76
2021/07/10 03:48:19;;;;;;;4.88;2.92;;;15.80;93.70;;;;;;5034793;28;20017;-77
2021/07/10 03:50:45;;;;;;;6.60;3.58;;;15.90;93.60;;;;;;5034699;28;20033;-78
2021/07/10 03:53:12;;;;;;;4.75;2.85;;;15.80;93.40;;;;;;5034489;28;20033;-78
2021/07/10 03:55:37;;;;;;;10.35;3.90;;;15.80;93.50;;;;;;5034156;28;20029;-77
2021/07/10 03:58:03;;;;;;;5.15;2.90;;;15.70;93.60;;;;;;5034490;28;20026;-78
2021/07/10 04:00:29;;;;;;;6.03;3.35;;;15.70;93.90;;;;;;5034746;28;20033;-77
2021/07/10 04:02:55;;;;;;;5.25;3.28;;;15.70;93.80;;;;;;5034192;28;20449;-75
2021/07/10 04:05:20;;;;;;;6.80;3.33;;;15.70;93.90;;;;;;5034207;28;20075;-77
2021/07/10 04:07:46;;;;;;;7.10;4.18;;;15.80;94.00;;;;;;5034299;28;20033;-76
2021/07/10 04:10:13;;;;;;;6.70;3.53;;;15.80;93.70;;;;;;5034785;28;20049;-78
2021/07/10 04:12:39;;;;;;;7.10;3.63;;;15.80;93.80;;;;;;5034230;28;20029;-74
2021/07/10 04:15:06;;;;;;;7.88;3.88;;;15.80;93.80;;;;;;5033649;28;20101;-76
2021/07/10 04:17:32;;;;;;;6.85;3.17;;;15.80;94.10;;;;;;5033849;28;20022;-77
2021/07/10 04:19:59;;;;;;;5.38;3.30;;;15.80;93.50;;;;;;5040167;28;20017;-75
2021/07/10 04:22:25;;;;;;;6.80;3.45;;;15.80;93.70;;;;;;5054011;28;20395;-75
2021/07/10 04:24:52;;;;;;;4.82;3.20;;;15.80;93.60;;;;;;5053463;28;20051;-76
2021/07/10 04:27:18;;;;;;;6.38;3.53;;;15.80;93.50;;;;;;5053363;28;20029;-78
2021/07/10 04:29:45;;;;;;;5.72;3.10;;;15.90;93.40;;;;;;5054198;28;20025;-74
2021/07/10 04:32:15;;;;;;;4.38;2.80;;;15.90;93.50;;;;;;5053763;28;20021;-78
2021/07/10 04:34:41;;;;;;;8.52;3.65;;;15.80;93.70;;;;;;5053392;28;20100;-74
2021/07/10 04:37:06;;;;;;;4.93;3.30;;;15.90;93.60;;;;;;5053345;28;20112;-77
2021/07/10 04:39:32;;;;;;;6.18;3.25;;;15.90;93.70;;;;;;5053821;28;20032;-79
2021/07/10 04:41:59;;;;;;;4.80;2.90;;;16.00;93.60;;;;;;5053583;28;20025;-76
2021/07/10 04:44:24;;;;;;;6.88;3.85;;;15.90;93.70;;;;;;5053412;28;20021;-76
2021/07/10 04:46:50;;;;;;;8.32;3.90;;;16.00;93.60;;;;;;5053035;28;20039;-75
2021/07/10 04:49:16;;;;;;;5.18;3.15;;;16.00;93.60;;;;;;5053719;28;20477;-76
2021/07/10 04:51:41;;;;;;;6.85;3.58;;;16.00;93.30;;;;;;5053278;28;20039;-77
2021/07/10 04:54:07;;;;;;;6.60;2.92;;;16.00;93.20;;;;;;5053138;28;20380;-75
2021/07/10 04:56:33;;;;;;;7.32;3.63;;;16.00;93.40;;;;;;5062540;28;20025;-76
2021/07/10 04:58:58;;;;;;;7.43;3.70;;;15.90;93.50;;;;;;5065387;28;20028;-76
2021/07/10 05:01:24;;;;;;;5.05;3.28;;;15.90;93.60;;;;;;5063206;28;20029;-77
2021/07/10 05:03:50;;;;;;;6.78;3.50;;;15.90;93.80;;;;;;5053229;28;20439;-78
2021/07/10 05:06:15;;;;;;;7.20;3.75;;;15.90;93.70;;;;;;5052718;28;20099;-77
2021/07/10 05:08:41;;;;;;;8.63;3.42;;;15.80;94.10;;;;;;5052637;28;20101;-77
2021/07/10 05:11:07;;;;;;;6.50;3.45;;;15.70;94.00;;;;;;5053362;28;20073;-77
2021/07/10 05:13:32;;;;;;;7.72;3.75;;;15.80;94.10;;;;;;5052866;28;20029;-78
2021/07/10 05:15:58;;;;;;;6.65;3.92;;;15.80;94.10;;;;;;5052288;28;20032;-77
2021/07/10 05:18:24;;;;;;;6.50;4.20;;;15.80;93.90;;;;;;5053078;28;20480;-75
2021/07/10 05:20:50;;;;;;;6.35;3.45;;;15.70;94.00;;;;;;5039833;28;20036;-78
2021/07/10 05:23:16;;;;;;;7.28;4.05;;;15.70;94.30;;;;;;5032800;28;20025;-77
2021/07/10 05:25:41;;;;;;;6.05;3.47;;;15.70;94.00;;;;;;5032155;28;20049;-76
2021/07/10 05:28:07;;;;;;;9.40;3.85;;;15.60;94.20;;;;;;5032549;28;20022;-76
2021/07/10 05:30:33;;;;;;;7.32;3.95;;;15.60;94.40;;;;;;5033042;28;20497;-78
2021/07/10 05:32:58;;;;;;;6.00;3.97;;;15.70;94.30;;;;;;5032686;28;20433;-77
2021/07/10 05:35:26;;;;;;;7.00;4.47;;;15.70;94.20;;;;;;5032349;28;20108;-77
2021/07/10 05:37:53;;;;;;;7.13;3.95;;;15.70;94.10;;;;;;5032438;28;20064;-76
2021/07/10 05:40:18;;;;;;;6.18;4.28;;;15.60;94.40;;;;;;5032598;28;20033;-77
2021/07/10 05:42:48;;;;;;;7.28;4.00;;;15.60;94.50;;;;;;5032660;28;20025;-77
2021/07/10 05:45:15;;;;;;;6.50;3.50;;;15.60;94.60;;;;;;5032259;28;20029;-76
2021/07/10 05:47:41;;;;;;;5.88;3.42;;;15.60;94.60;;;;;;5032110;28;20064;-76
2021/07/10 05:50:07;;;;;;;7.18;4.28;;;15.70;94.30;;;;;;5032791;28;20029;-77
2021/07/10 05:52:33;;;;;;;5.95;3.58;;;15.70;94.20;;;;;;5032035;28;20034;-77
2021/07/10 05:54:59;;;;;;;6.25;3.70;;;15.70;94.40;;;;;;5032019;28;20017;-77
2021/07/10 05:57:25;;;;;;;7.25;4.03;;;15.70;94.20;;;;;;5032110;28;20022;-77
2021/07/10 05:59:50;;;;;;;6.97;3.40;;;15.70;94.20;;;;;;5032713;28;20036;-76
2021/07/10 06:02:16;;;;;;;6.15;3.30;;;15.80;94.10;;;;;;5032189;28;20040;-75
2021/07/10 06:04:42;;;;;;;6.63;3.13;;;15.80;94.30;;;;;;5031580;28;20278;-76
2021/07/10 06:07:07;;;;;;;5.57;3.25;;;15.70;94.10;;;;;;5031904;28;20025;-77
2021/07/10 06:09:34;;;;;;;5.25;3.58;;;15.70;94.50;;;;;;5014890;28;20025;-76
2021/07/10 06:12:00;;;;;;;7.47;3.65;;;15.70;94.30;;;;;;5032214;28;20104;-76
2021/07/10 06:14:26;;;;;;;5.25;3.58;;;15.70;94.40;;;;;;5031872;28;20053;-77
2021/07/10 06:16:53;;;;;;;5.80;3.10;;;15.60;94.40;;;;;;5014076;28;20026;-78
2021/07/10 06:19:18;;;;;;;6.20;3.88;;;15.50;94.70;;;;;;5032792;28;20025;-76
2021/07/10 06:21:44;;;;;;;7.05;3.72;;;15.60;94.60;;;;;;5037697;28;20112;-77
2021/07/10 06:24:10;;;;;;;6.63;3.67;;;15.40;94.90;;;;;;5055725;28;20370;-77
2021/07/10 06:26:35;;;;;;;7.15;3.80;;;15.50;95.00;;;;;;5055643;28;20087;-77
2021/07/10 06:29:02;;;;;;;5.68;3.30;;;15.50;95.00;;;;;;5056123;28;20070;-78
2021/07/10 06:31:28;;;;;;;7.32;4.28;;;15.30;95.10;;;;;;5056298;28;20075;-78
2021/07/10 06:33:53;;;;;;;6.47;3.75;;;15.30;95.40;;;;;;5055892;28;20419;-77
2021/07/10 06:36:19;;;;;;;5.53;3.55;;;15.30;95.30;;;;;;5055529;28;20025;-76
2021/07/10 06:38:45;;;;;;;5.80;3.50;;;15.40;95.10;;;;;;5055850;28;20062;-75
2021/07/10 06:41:11;;;;;;;7.80;3.60;;;15.30;95.10;;;;;;5056138;28;20397;-79
2021/07/10 06:43:37;;;;;;;5.07;3.30;;;15.40;95.20;;;;;;5055749;28;20103;-78
2021/07/10 06:46:06;;;;;;;6.35;3.92;;;15.40;95.20;;;;;;5055396;28;20028;-76
2021/07/10 06:48:31;;;;;;;6.05;3.58;;;15.40;95.00;;;;;;5055472;28;20020;-77
2021/07/10 06:50:57;;;;;;;7.90;3.97;;;15.50;95.00;;;;;;5037970;28;20025;-78
2021/07/10 06:53:23;;;;;;;7.07;3.80;;;15.60;94.80;;;;;;5055407;28;20100;-75
2021/07/10 06:55:49;;;;;;;6.07;3.78;;;15.50;94.90;;;;;;5055248;28;20025;-74
2021/07/10 06:58:15;;;;;;;7.18;3.78;;;15.50;95.00;;;;;;5037558;28;20028;-77
2021/07/10 07:00:41;;;;;;;7.25;3.83;;;15.50;95.20;;;;;;5055986;28;20033;-76
2021/07/10 07:03:06;;;;;;;5.45;3.17;;;15.50;95.20;;;;;;5055220;28;20024;-75
2021/07/10 07:05:32;;;;;;;7.35;4.05;;;15.50;95.00;;;;;;5055033;28;20064;-76
2021/07/10 07:07:58;;;;;;;5.03;3.20;;;15.50;95.30;;;;;;5055210;28;20129;-77
2021/07/10 07:10:23;;;;;;;5.90;3.25;;;15.60;95.30;;;;;;5055570;28;20033;-77
2021/07/10 07:12:49;;;;;;;11.45;3.80;;;15.50;95.50;;;;;;5037330;28;20083;-77
2021/07/10 07:15:15;;;;;;;5.15;3.08;;;15.60;95.50;;;;;;5054877;28;20032;-77
2021/07/10 07:17:41;;;;;;;7.00;3.60;;;15.60;95.40;;;;;;5055242;28;20013;-77
2021/07/10 07:20:12;;;;;;;4.57;3.42;;;15.70;95.30;;;;;;5048180;28;20389;-80
2021/07/10 07:22:38;;;;;;;5.78;3.22;;;15.70;95.40;;;;;;5052524;28;20074;-75
2021/07/10 07:25:05;;;;;;;4.82;3.10;;;15.80;95.70;;;;;;5055946;28;20128;-77
2021/07/10 07:27:30;;;;;;;6.53;3.50;;;15.80;95.40;;;;;;5055877;28;20028;-77
2021/07/10 07:29:56;;;;;;;5.45;3.08;;;15.80;95.60;;;;;;5061724;28;20033;-75
2021/07/10 07:32:22;;;;;;;5.75;3.60;;;15.90;95.90;;;;;;5064609;28;20088;-74
2021/07/10 07:34:48;;;;;;;6.18;3.40;;;15.90;95.40;;;;;;5056638;28;20021;-77
2021/07/10 07:37:18;;;;;;;6.03;3.20;;;15.90;95.90;;;;;;5055655;28;20083;-78
2021/07/10 07:39:46;;;;;;;3.05;2.47;;;15.90;95.50;;;;;;5055808;28;20025;-77
2021/07/10 07:42:13;;;;;;;5.07;2.90;;;15.80;95.30;;;;;;5055744;28;20033;-76
2021/07/10 07:44:40;;;;;;;5.50;3.10;;;15.70;95.50;;;;;;5055737;28;20074;-78
2021/07/10 07:47:08;;;;;;;5.28;3.08;;;15.80;95.70;;;;;;5055642;28;20028;-77
2021/07/10 07:49:34;;;;;;;4.32;2.88;;;15.80;95.80;;;;;;5055268;28;20025;-79
2021/07/10 07:51:59;;;;;;;5.20;3.10;;;15.90;95.80;;;;;;5055348;28;20029;-76
2021/07/10 07:54:27;;;;;;;6.72;3.28;;;15.90;95.80;;;;;;5055455;28;20081;-76
2021/07/10 07:56:53;;;;;;;5.18;3.15;;;15.90;95.70;;;;;;5055488;28;20021;-77
2021/07/10 07:59:19;;;;;;;4.97;2.90;;;15.90;95.90;;;;;;5055418;28;20021;-77
2021/07/10 08:01:45;;;;;;;5.07;3.00;;;15.90;96.00;;;;;;5055103;28;20074;-77
2021/07/10 08:04:11;;;;;;;5.65;3.05;;;16.00;95.90;;;;;;5055029;28;20075;-76
2021/07/10 08:06:37;;;;;;;5.65;2.80;;;16.00;96.00;;;;;;5055444;28;20029;-77
2021/07/10 08:09:03;;;;;;;5.25;2.92;;;16.00;96.10;;;;;;5055343;28;20029;-77
2021/07/10 08:11:29;;;;;;;5.25;3.00;;;16.10;95.80;;;;;;5055233;28;20469;-78
2021/07/10 08:13:56;;;;;;;4.80;3.03;;;16.10;95.80;;;;;;5055137;28;20025;-77
2021/07/10 08:16:21;;;;;;;7.07;3.25;;;16.10;95.90;;;;;;5054905;28;20021;-78
2021/07/10 08:18:47;;;;;;;4.57;2.90;;;16.10;95.70;;;;;;5055049;28;20097;-78
2021/07/10 08:21:13;;;;;;;5.18;2.80;;;16.10;95.80;;;;;;5020738;28;20053;-76
2021/07/10 08:23:39;;;;;;;5.30;2.55;;;16.20;95.90;;;;;;5035015;28;20530;-78
2021/07/10 08:26:05;;;;;;;3.97;2.45;;;16.20;95.90;;;;;;5051647;28;20045;-76
2021/07/10 08:28:31;;;;;;;3.53;2.70;;;16.30;95.80;;;;;;5054662;28;20100;-76
2021/07/10 08:30:57;;;;;;;5.63;4.00;;;16.30;96.20;;;;;;5054959;28;20079;-78
2021/07/10 08:33:23;;;;;;;4.00;2.35;;;16.30;96.10;;;;;;5054933;28;20025;-77
2021/07/10 08:35:48;;;;;;;4.10;2.33;;;16.40;96.20;;;;;;5054698;28;20021;-78
2021/07/10 08:38:14;;;;;;;3.05;2.15;;;16.40;96.00;;;;;;5054856;28;20092;-76
2021/07/10 08:40:40;;;;;;;2.15;1.88;;;16.50;95.80;;;;;;5054340;28;20025;-78
2021/07/10 08:43:05;;;;;;;2.85;1.98;;;16.60;95.40;;;;;;5053760;28;20028;-76
2021/07/10 08:45:33;;;;;;;2.20;1.70;;;16.50;95.50;;;;;;5054990;28;20028;-78
2021/07/10 08:48:02;;;;;;;2.72;1.90;;;16.60;95.60;;;;;;5054422;28;20473;-78
2021/07/10 08:50:28;;;;;;;3.83;1.80;;;16.70;95.90;;;;;;5053112;28;20405;-78
2021/07/10 08:52:53;;;;;;;2.35;1.90;;;16.70;95.30;;;;;;5054376;28;20017;-77
2021/07/10 08:55:20;;;;;;;3.65;2.10;;;16.70;95.40;;;;;;5054284;28;20104;-76
2021/07/10 08:57:46;;;;;;;2.53;1.65;;;16.80;95.60;;;;;;5054321;28;20064;-77
2021/07/10 09:00:15;;;;;;;3.53;1.58;;;16.80;95.60;;;;;;5054170;28;20053;-79
2021/07/10 09:02:46;;;;;;;1.83;1.48;;;16.80;95.70;;;;;;5054254;28;20021;-78
2021/07/10 09:05:12;;;;;;;2.20;1.50;;;16.80;95.50;;;;;;5054229;28;20025;-75
2021/07/10 09:08:08;;;;;;;1.88;1.60;;;16.90;95.00;;;;;;5054115;28;20485;-78
2021/07/10 09:10:35;;;;;;;2.05;1.40;;;17.10;94.70;;;;;;5054266;28;20025;-77
2021/07/10 09:13:01;;;;;;;2.28;1.48;;;17.30;94.70;;;;;;5053855;28;20028;-77
2021/07/10 09:15:27;;;;;;;2.15;1.23;;;17.30;94.40;;;;;;5053864;28;20021;-75
2021/07/10 09:17:53;;;;;;;1.42;1.33;;;17.30;94.70;;;;;;5054112;28;20025;-76
2021/07/10 09:20:27;;;;;;;1.25;1.10;;;17.20;94.90;;;;;;5062784;28;20365;-77
2021/07/10 09:22:54;;;;;;;1.20;1.10;;;17.20;95.10;;;;;;5074308;28;20028;-77
2021/07/10 09:25:29;;;;;;;2.60;0.98;;;17.30;94.80;;;;;;5063023;28;20570;-78
2021/07/10 09:27:57;;;;;;;1.30;1.20;;;17.40;94.60;;;;;;5054012;28;20032;-78
2021/07/10 09:30:31;;;;;;;1.50;1.20;;;17.60;94.40;;;;;;5053765;28;20033;-75
2021/07/10 09:33:21;;;;;;;1.85;1.40;;;17.60;94.60;;;;;;5054514;28;20080;-77
2021/07/10 09:35:57;;;;;;;1.10;1.00;;;17.60;94.40;;;;;;5055374;28;20009;-76
2021/07/10 09:38:34;;;;;;;1.20;1.10;;;17.60;94.70;;;;;;5036378;28;20095;-76
2021/07/10 09:41:03;;;;;;;1.00;1.00;;;17.70;94.40;;;;;;5053580;28;20025;-76
2021/07/10 09:43:34;;;;;;;1.35;1.10;;;17.70;94.10;;;;;;5053525;28;20083;-74
2021/07/10 09:46:02;;;;;;;1.00;0.90;;;17.70;94.50;;;;;;5053514;28;20476;-76
2021/07/10 09:48:37;;;;;;;1.60;1.17;;;17.70;94.30;;;;;;5053526;28;20025;-76
2021/07/10 09:51:25;;;;;;;1.10;1.00;;;17.60;94.40;;;;;;5053718;28;20025;-77
2021/07/10 09:54:03;;;;;;;3.28;1.27;;;17.60;95.00;;;;;;5063072;28;20025;-74
2021/07/10 09:56:30;;;;;;;1.27;1.05;;;17.60;94.90;;;;;;5069558;28;20052;-75
2021/07/10 09:58:57;;;;;;;2.90;1.27;;;17.50;94.90;;;;;;5064895;28;20024;-78
2021/07/10 10:01:35;;;;;;;1.42;1.20;;;17.50;94.80;;;;;;5053002;28;20104;-78
2021/07/10 10:04:02;;;;;;;1.20;1.10;;;17.50;94.70;;;;;;5053137;28;20017;-79
2021/07/10 10:06:29;;;;;;;1.45;1.13;;;17.40;95.10;;;;;;5053143;28;20024;-77
2021/07/10 10:08:59;;;;;;;1.67;1.40;;;17.30;95.30;;;;;;5053051;28;20013;-77
2021/07/10 10:11:45;;;;;;;;;;;17.30;95.50;;;;;;5053564;28;20063;-77
2021/07/10 10:14:11;;;;;;;2.22;1.77;;;17.40;95.30;;;;;;5052858;28;19916;-78
2021/07/10 10:16:37;;;;;;;2.50;1.88;;;17.40;95.10;;;;;;5053055;28;20017;-76
2021/07/10 10:19:03;;;;;;;2.58;1.70;;;17.40;95.20;;;;;;5035175;28;20057;-79
2021/07/10 10:21:29;;;;;;;1.75;1.50;;;17.40;94.80;;;;;;5034263;28;20053;-77
2021/07/10 10:23:55;;;;;;;2.28;1.83;;;17.40;95.20;;;;;;5032985;28;20037;-78
2021/07/10 10:26:21;;;;;;;2.20;1.63;;;17.70;95.00;;;;;;5032733;28;20050;-77
2021/07/10 10:28:48;;;;;;;3.10;1.98;;;17.80;94.40;;;;;;5032878;28;20391;-77
2021/07/10 10:31:14;;;;;;;2.40;1.80;;;17.90;94.10;;;;;;5032959;28;20474;-77
2021/07/10 10:33:41;;;;;;;1.75;1.50;;;18.10;94.30;;;;;;5032929;28;20018;-77
2021/07/10 10:36:07;;;;;;;2.00;1.73;;;18.50;93.80;;;;;;5032848;28;20052;-77
2021/07/10 10:38:32;;;;;;;2.65;1.77;;;18.90;93.40;;;;;;5032849;28;20053;-78
2021/07/10 10:41:00;;;;;;;2.63;1.83;;;19.30;92.40;;;;;;5032941;28;20075;-78
2021/07/10 10:43:26;;;;;;;3.10;1.60;;;19.70;90.90;;;;;;5032946;28;20017;-75
2021/07/10 10:45:52;;;;;;;2.30;1.83;;;19.60;90.80;;;;;;5032859;28;20026;-77
2021/07/10 10:48:35;;;;;;;1.83;1.60;;;20.20;90.60;;;;;;5032723;28;20021;-76
2021/07/10 10:51:01;;;;;;;4.13;2.00;;;20.70;88.10;;;;;;5032642;28;20022;-76
2021/07/10 10:53:26;;;;;;;2.55;1.70;;;20.60;89.50;;;;;;5032691;28;20101;-78
2021/07/10 10:55:52;;;;;;;2.92;1.73;;;20.90;88.80;;;;;;5032840;28;20033;-77
2021/07/10 10:58:19;;;;;;;2.10;1.80;;;21.50;86.60;;;;;;5032755;28;20032;-75
2021/07/10 11:00:47;;;;;;;2.65;1.80;;;22.80;83.80;;;;;;5032669;28;20025;-76
2021/07/10 11:03:20;;;;;;;3.20;1.77;;;23.70;80.70;;;;;;5032621;28;20025;-77
2021/07/10 11:05:57;;;;;;;2.20;1.55;;;23.90;77.30;;;;;;5032773;28;20482;-81
2021/07/10 11:08:25;;;;;;;2.45;1.55;;;26.00;72.70;;;;;;5036426;28;20026;-78
2021/07/10 11:10:54;;;;;;;1.90;1.52;;;26.60;63.60;;;;;;5036245;28;20108;-78
2021/07/10 11:13:31;;;;;;;1.73;1.40;;;26.00;64.10;;;;;;5036167;28;20055;-79
2021/07/10 11:16:17;;;;;;;1.95;1.70;;;25.80;65.20;;;;;;5036058;28;20021;-77
2021/07/10 11:19:04;;;;;;;3.45;1.70;;;26.10;66.80;;;;;;5036203;28;20029;-75
2021/07/10 11:21:35;;;;;;;2.05;1.60;;;26.90;60.60;;;;;;5054322;28;20494;-77
2021/07/10 11:26:56;;;;;;;1.65;1.42;;;25.10;68.80;;;;;;5056423;28;20052;-78
2021/07/10 11:29:38;;;;;;;2.63;1.80;;;24.10;74.70;;;;;;5056091;28;20060;-75
2021/07/10 11:32:16;;;;;;;3.55;1.98;;;23.10;79.20;;;;;;5055983;28;20025;-78
2021/07/10 11:34:53;;;;;;;2.10;1.73;;;22.50;79.80;;;;;;5056008;28;20025;-78
2021/07/10 11:37:30;;;;;;;1.95;1.67;;;22.70;82.40;;;;;;5055672;28;20053;-77
2021/07/10 11:40:01;;;;;;;4.40;2.10;;;23.20;78.70;;;;;;5055930;28;20048;-79
2021/07/10 11:42:27;;;;;;;2.13;1.77;;;23.30;77.00;;;;;;5055772;28;20025;-78
2021/07/10 11:44:57;;;;;;;2.35;1.92;;;23.40;76.10;;;;;;5055763;28;20500;-77
2021/07/10 11:47:45;;;;;;;3.33;2.00;;;23.60;76.90;;;;;;5055706;28;20032;-79
2021/07/10 11:50:24;;;;;;;3.88;1.80;;;23.80;76.30;;;;;;5055285;28;20037;-77
2021/07/10 11:53:18;;;;;;;1.98;1.85;;;23.70;77.20;;;;;;5055687;28;20025;-79
2021/07/10 11:55:46;;;;;;;3.05;2.17;;;23.20;79.90;;;;;;5046516;28;20068;-77
2021/07/10 11:58:17;;;;;;;3.25;2.03;;;22.90;80.50;;;;;;5055434;28;20029;-79
2021/07/10 12:00:44;;;;;;;2.00;1.80;;;22.70;79.50;;;;;;5055266;28;20507;-77
2021/07/10 12:03:25;;;;;;;2.03;1.70;;;22.60;81.00;;;;;;5055224;28;20482;-80
2021/07/10 12:05:55;;;;;;;3.38;1.70;;;22.90;79.50;;;;;;5055335;28;20039;-77
2021/07/10 12:08:21;;;;;;;3.63;1.80;;;23.00;78.50;;;;;;5055349;28;20029;-78
2021/07/10 12:10:49;;;;;;;2.17;1.70;;;22.70;76.90;;;;;;5055192;28;20032;-77
2021/07/10 12:13:19;;;;;;;2.00;1.60;;;22.70;74.20;;;;;;5067229;28;20021;-75
2021/07/10 12:15:52;;;;;;;3.53;1.88;;;22.70;76.80;;;;;;5062672;28;20017;-77
2021/07/10 12:18:20;;;;;;;2.20;1.70;;;22.80;76.50;;;;;;5053852;28;20028;-77
2021/07/10 12:20:50;;;;;;;2.60;1.73;;;23.20;77.80;;;;;;5042473;28;20108;-79
2021/07/10 12:23:19;;;;;;;1.90;1.58;;;23.20;74.90;;;;;;5035076;28;20036;-79
2021/07/10 12:25:57;;;;;;;2.65;1.50;;;23.10;75.20;;;;;;5034892;28;20192;-77
2021/07/10 12:28:32;;;;;;;2.20;1.60;;;23.10;75.20;;;;;;5016837;28;20038;-77
2021/07/10 12:30:59;;;;;;;1.92;1.50;;;23.40;73.20;;;;;;5034945;28;20074;-79
2021/07/10 12:33:37;;;;;;;1.92;1.58;;;23.60;72.90;;;;;;5034886;28;20025;-77
2021/07/10 12:36:07;;;;;;;2.75;1.63;;;23.50;70.50;;;;;;5017017;28;20389;-76
2021/07/10 12:38:35;;;;;;;2.67;2.08;;;23.50;73.00;;;;;;5034759;28;20053;-78
2021/07/10 12:41:24;;;;;;;2.53;1.50;;;23.40;76.20;;;;;;5034717;28;20079;-78
2021/07/10 12:43:51;;;;;;;3.40;1.80;;;23.40;73.70;;;;;;5034794;28;20061;-78
2021/07/10 12:46:18;;;;;;;2.35;1.90;;;23.30;74.70;;;;;;5034599;28;20104;-77
2021/07/10 12:48:44;;;;;;;2.95;1.90;;;23.20;75.30;;;;;;5034375;28;20022;-76
2021/07/10 12:51:10;;;;;;;2.40;1.85;;;22.90;74.60;;;;;;5034369;28;20029;-78
2021/07/10 12:53:38;;;;;;;2.33;1.80;;;22.60;79.20;;;;;;5034332;28;20021;-76